Montgomery Regional (Dannelly Field) Airport
KMGM : now visible

Airfield :











YOU CAN JOIN US ON...

 
LOGIN :

Register | Disclaimer

   EN    FR    IT 

 









Legend :    VFR   Marginal VFR   IFR   Intensive IFR   Very Intensive IFR
Visi :
Ceiling :
>= 8 km
>= 3000ft
5 to 8 km
1000 to 3000 ft
1500m to 5 km
500 to 1000 ft
800 to 1500m
200 to 500 ft
< 800m
< 200 ft
Symbols :   Thunderstorms  Fog  Heavy snow  Heavy precipitations  Wind > 20 kt






- Airport Elevation : 221 ft
- IATA code : MGM


KMGM - Montgomery Regional (Dannelly Field)

CURRENT METAR :
  • 291212Z 07005KT 10SM FEW005 24/22 A3016 RMK AO2 T02440222

EXPIRED METARs :
  • 291153Z 06004KT 10SM CLR 24/22 A3015 RMK AO2 SLP208 60000 70259 T02390222 10239 20233 53009
  • 291053Z 05004KT 10SM FEW006 SCT010 23/22 A3013 RMK AO2 SLP200 T02330217
  • 290953Z AUTO 05005KT 10SM CLR 23/22 A3012 RMK AO2 SLP198 T02330217

TAF KMGM
Valid from the 29 at 12:00 until the 30 at 12:00 UTC


291120Z 2912/3012 07005KT P6SM BKN250
FM291600 09005KT P6SM VCSH SCT040 BKN180
TEMPO 2918/2921 4SM TSRA BR OVC035CB
FM292100 09006KT 6SM SHRA BR VCTS BKN060CB
FM300100 10006KT P6SM BKN120
PROB30 3001/3006 4SM TSRA BR OVC025CB
FM300600 09005KT P6SM BKN025
KZTL FIR / North America



MET'MAP, your aeronautical weather chart ! - Copyright ORBIFLY December 2007 - Disclaimer

ORBIFLY MET'MAP TEAM :

Programming & Development : Alexandra Zaïnal
Original concept : Baudouin d'Aumeries
Technical & hardware support : Manuel Goepfert
Assistance : Marc-Olivier Méhu




SOURCES & CREDITS :

   NOAA       Earth
Advisory